Flight Track Log - Related Links

Times and Time Zones

All times are in EDT time to prevent confusion due to time zone crossing. See the DAL2086 flight status page for this flight to view local times or setup timezone preferences in your user account.

Time Position Orientation Groundspeed Altitude Reporting Facility
EDT Latitude Longitude Course Direction KTS MPH feet Rate Location/Type
Fri 01:09:31 PM 33.6331 -84.3881 47° Northeast 460 529 2,600  Level Atlanta Center
Fri 01:10:31 PM 33.6333 -84.3208 90° East 347 399 4,700 2,450 Climbing Atlanta Center
Fri 01:11:31 PM 33.6314 -84.2308 91° East 274 315 7,500 2,950 Climbing Atlanta Center
Fri 01:12:31 PM 33.6314 -84.1311 90° East 312 359 10,600 2,450 Climbing Atlanta Center
Fri 01:13:00 PM 34.0602 -83.8867 76° East  Level Estimated
Fri 01:13:31 PM 33.6606 -84.0239 72° East 325 374 12,400  Level Atlanta Center
Fri 01:14:00 PM 34.1447 -83.7778 47° Northeast  Level Estimated
Fri 01:15:31 PM 33.7564 -83.7764 65° Northeast 395 455 17,300  Level Atlanta Center
Fri 01:16:31 PM 33.8061 -83.6489 65° Northeast 420 483 19,200 1,800 Climbing Atlanta Center
Fri 01:17:31 PM 33.8642 -83.5158 62° Northeast 435 501 20,900 1,800 Climbing Atlanta Center
Fri 01:18:31 PM 33.9219 -83.3781 63° Northeast 457 526 22,800 1,650 Climbing Atlanta Center
Fri 01:19:31 PM 33.9919 -83.2344 60° Northeast 472 543 24,200 1,450 Climbing Atlanta Center
Fri 01:20:31 PM 34.0744 -83.0808 57° Northeast 492 566 25,700 1,450 Climbing Atlanta Center
Fri 01:21:31 PM 34.1483 -82.9344 59° Northeast 509 586 27,100 1,350 Climbing Atlanta Center
Fri 01:22:31 PM 34.2283 -82.7850 57° Northeast 514 592 28,400 1,650 Climbing Atlanta Center
Fri 01:23:31 PM 34.3017 -82.6331 60° Northeast 519 597 30,400 1,600 Climbing Atlanta Center
Fri 01:24:31 PM 34.3772 -82.5011 55° Northeast 519 597 31,600 1,300 Climbing Atlanta Center
Fri 01:25:31 PM 34.4569 -82.3533 57° Northeast 524 603 33,000 1,250 Climbing Atlanta Center
Fri 01:26:31 PM 34.5361 -82.2006 58° Northeast 529 609 34,100 1,000 Climbing Atlanta Center
Fri 01:27:31 PM 34.6128 -82.0450 59° Northeast 529 609 35,000 450 Climbing Atlanta Center
Fri 01:28:31 PM 34.6978 -81.8786 58° Northeast 529 609 35,000  Level Atlanta Center
Fri 01:29:31 PM 34.7783 -81.7222 58° Northeast 529 609 35,000  Level Atlanta Center
Fri 01:30:31 PM 34.8567 -81.5683 58° Northeast 534 615 35,000  Level Atlanta Center
Fri 01:31:31 PM 34.9328 -81.4114 59° Northeast 534 615 35,000  Level Atlanta Center
Fri 01:32:31 PM 35.0128 -81.2517 59° Northeast 534 615 35,000  Level Atlanta Center
Fri 01:33:31 PM 35.0883 -81.0994 59° Northeast 534 615 35,000  Level Atlanta Center
Fri 01:34:31 PM 35.1658 -80.9392 59° Northeast 540 621 35,000 200 Level Atlanta Center
Fri 01:35:31 PM 35.2411 -80.7839 59° Northeast 540 621 35,400 700 Climbing Atlanta Center
Fri 01:36:31 PM 35.3125 -80.6436 58° Northeast 545 627 36,400 800 Climbing Atlanta Center
Fri 01:37:31 PM 35.3914 -80.4850 59° Northeast 545 627 37,000 193 Climbing Atlanta Center
Fri 01:39:38 PM 35.5494 -80.1567 59° Northeast 533 613 37,000  Level Washington Center
Fri 01:40:36 PM 35.6331 -79.9850 59° Northeast 526 605 37,000  Level Washington Center
Fri 01:41:37 PM 35.7075 -79.8281 60° Northeast 521 600 37,000  Level Washington Center
Fri 01:42:38 PM 35.7794 -79.6833 58° Northeast 539 620 37,000  Level Washington Center
Fri 01:43:39 PM 35.8725 -79.5189 55° Northeast 529 609 37,000  Level Washington Center
Fri 01:44:36 PM 35.9583 -79.3797 53° Northeast 523 602 37,000  Level Washington Center
Fri 01:45:37 PM 36.0461 -79.2425 52° Northeast 512 589 37,000  Level Washington Center
Fri 01:46:38 PM 36.1339 -79.1000 53° Northeast 507 583 37,000  Level Washington Center
Fri 01:47:36 PM 36.2214 -78.9597 52° Northeast 507 583 37,000  Level Washington Center
Fri 01:48:37 PM 36.3067 -78.8217 53° Northeast 507 583 37,000  Level Washington Center
Fri 01:49:38 PM 36.3936 -78.6833 52° Northeast 507 583 37,000  Level Washington Center
Fri 01:50:39 PM 36.4808 -78.5419 52° Northeast 507 583 37,000  Level Washington Center
Fri 01:51:36 PM 36.5675 -78.4006 53° Northeast 512 589 37,000  Level Washington Center
Fri 01:52:37 PM 36.6522 -78.2586 53° Northeast 512 589 37,000  Level Washington Center
Fri 01:53:38 PM 36.7258 -78.1314 54° Northeast 512 589 37,000  Level Washington Center
Fri 01:54:36 PM 36.8103 -77.9889 53° Northeast 512 589 37,000  Level Washington Center
Fri 01:55:37 PM 36.8964 -77.8461 53° Northeast 512 589 37,000  Level Washington Center
Fri 01:56:38 PM 36.9803 -77.7031 54° Northeast 512 589 37,000  Level Washington Center
Fri 01:57:39 PM 37.0661 -77.5597 53° Northeast 512 589 37,000  Level Washington Center
Fri 01:58:36 PM 37.1497 -77.4186 53° Northeast 512 589 37,000  Level Washington Center
Fri 01:59:38 PM 37.2333 -77.2769 53° Northeast 507 583 37,000  Level Washington Center
Fri 02:00:38 PM 37.3186 -77.1431 51° Northeast 502 578 37,000 407 Level Washington Center
Fri 02:01:36 PM 37.4400 -77.1089 13° North 398 458 37,800 504 Climbing Washington Center
Fri 02:02:37 PM 37.5183 -77.1681 329° Northwest 351 404 38,000 98 Climbing Washington Center
Fri 02:03:38 PM 37.5464 -77.2681 290° West 278 320 38,000  Level Washington Center
Fri 02:04:39 PM 37.5239 -77.3697 254° West 257 296 38,000  Level Washington Center
Fri 02:05:36 PM 37.4500 -77.4414 218° Southwest 268 308 38,000  Level Washington Center
Fri 02:06:37 PM 37.3492 -77.4756 195° South 306 352 38,000  Level Washington Center
Fri 02:07:38 PM 37.2342 -77.5039 191° South 340 391 38,000  Level Washington Center
Fri 02:08:36 PM 37.1217 -77.4778 170° South 373 429 38,000  Level Washington Center
Fri 02:09:37 PM 37.0508 -77.3356 122° Southeast 385 443 38,000  Level Washington Center
Fri 02:10:38 PM 37.0742 -77.1589 81° East 387 445 38,000  Level Washington Center
Fri 02:11:40 PM 37.1694 -77.0411 45° Northeast 395 455 38,000  Level Washington Center
Fri 02:12:37 PM 37.2872 -76.9806 22° Northeast 426 490 38,000  Level Washington Center
Fri 02:13:37 PM 37.4025 -76.9122 25° Northeast 436 502 38,000  Level Washington Center
Fri 02:14:38 PM 37.5097 -76.8486 25° Northeast 457 526 38,000  Level Washington Center
Fri 02:15:36 PM 37.6250 -76.7847 24° Northeast 457 526 38,000  Level Washington Center
Fri 02:16:37 PM 37.7383 -76.7183 25° Northeast 452 520 38,000  Level Washington Center
Fri 02:17:38 PM 37.8517 -76.6517 25° Northeast 446 513 38,000  Level Washington Center
Fri 02:18:39 PM 37.9667 -76.5875 24° Northeast 446 513 38,000 -559 Level Washington Center
Fri 02:19:36 PM 38.0819 -76.5203 25° Northeast 451 519 36,900 -1,261 Descending Washington Center
Fri 02:20:38 PM 38.1994 -76.4506 25° Northeast 451 519 35,500 -1,458 Descending Washington Center
Fri 02:26:07 PM 38.8435 -75.8831 36° Northeast 499 574 27,400 -1,235 Descending FlightAware ADS-B (KWWD)
Fri 02:27:31 PM 38.9989 -75.7369 36° Northeast 502 578 27,000 -190 Descending FlightAware ADS-B (KWWD)
Fri 02:28:13 PM 39.0751 -75.6647 37° Northeast 511 588 27,000  Level FlightAware ADS-B (KPHL)
Fri 02:28:56 PM 39.1555 -75.5883 37° Northeast 508 585 27,000 -77 Level FlightAware ADS-B
Fri 02:29:31 PM 39.2237 -75.5232 37° Northeast 500 575 26,900 -471 Descending FlightAware ADS-B (KWWD)
Fri 02:29:47 PM 39.2557 -75.4930 35° Northeast 507 583 26,600 -1,889 Descending FlightAware ADS-B (KWWD)
Fri 02:30:25 PM 39.3269 -75.4303 34° Northeast 497 572 25,200 -2,000 Descending FlightAware ADS-B
Fri 02:31:41 PM 39.4266 -75.3431 35° Northeast 468 539 22,800 -2,017 Descending FlightAware ADS-B (KPHL)
Fri 02:32:24 PM 39.5443 -75.2375 37° Northeast 462 532 21,200 -2,468 Descending FlightAware ADS-B (KWWD)
Fri 02:34:02 PM 39.6889 -75.1004 33° Northeast 447 514 17,000 -2,455 Descending FlightAware ADS-B
Fri 02:34:36 PM 39.7664 -75.0381 33° Northeast 463 533 15,800 -2,021 Descending Washington Center
Fri 02:35:37 PM 39.8661 -74.9508 34° Northeast 436 502 13,800 -1,800 Descending Washington Center
Fri 02:37:16 PM 40.0000 -74.7833 44° Northeast 415 478 11,000 -1,345 Descending New York TRACON
Fri 02:38:22 PM 40.0833 -74.6667 47° Northeast 405 466 10,100 -500 Descending New York TRACON
Fri 02:39:16 PM 40.1500 -74.5667 49° Northeast 404 465 10,000 -53 Descending New York TRACON
Fri 02:40:16 PM 40.2333 -74.4667 42° Northeast 403 464 10,000  Level New York TRACON
Fri 02:41:16 PM 40.3167 -74.3667 42° Northeast 396 456 10,000 -200 Level New York TRACON
Fri 02:42:16 PM 40.4000 -74.2833 37° Northeast 336 387 9,600 -800 Descending New York TRACON
Fri 02:43:16 PM 40.4667 -74.2167 37° Northeast 325 374 8,400 -1,300 Descending New York TRACON
Fri 02:44:16 PM 40.5333 -74.1333 44° Northeast 318 366 7,000 -1,850 Descending New York TRACON
Fri 02:45:16 PM 40.6167 -74.1000 17° North 287 330 4,700 -1,500 Descending New York TRACON
Fri 02:46:16 PM 40.6833 -74.0667 21° North 302 348 4,000 -300 Descending New York TRACON
Fri 02:47:16 PM 40.7500 -74.0167 30° Northeast 258 297 4,100  Climbing New York TRACON
Fri 02:48:16 PM 40.8000 -73.9667 37° Northeast 235 270 4,000 -53 Descending New York TRACON
Fri 02:49:10 PM 40.8500 -73.9167 37° Northeast 238 274 4,000  Level New York TRACON
Fri 02:50:10 PM 40.9000 -73.8667 37° Northeast 238 274 4,000  Level New York TRACON
Fri 02:51:10 PM 40.9500 -73.8167 37° Northeast 236 272 4,000  Level New York TRACON
Fri 02:52:10 PM 41.0167 -73.7667 30° Northeast 234 269 4,000 -50 Level New York TRACON
Fri 02:53:10 PM 41.0500 -73.7167 49° Northeast 237 273 3,900 -500 Descending New York TRACON
Fri 02:54:10 PM 41.0167 -73.6833 143° Southeast 152 175 3,000 -474 Descending New York TRACON
Fri 02:55:04 PM 40.9833 -73.7000 201° Southwest 147 169 3,000  Level New York TRACON
Fri 02:56:10 PM 40.9500 -73.7333 217° Southwest 150 173 3,000  Level New York TRACON
Fri 02:57:04 PM 40.9167 -73.7667 217° Southwest 150 173 3,000 -421 Level New York TRACON
Fri 02:58:04 PM 40.8833 -73.8000 217° Southwest 156 180 2,200 -800 Descending New York TRACON
Fri 02:59:04 PM 40.8500 -73.8167 201° Southwest 136 157 1,400 -700 Descending New York TRACON
Fri 03:00:04 PM 40.8167 -73.8500 217° Southwest 121 139 800 -600 Descending New York TRACON

Login

Don't have an account? Register now (free) for customized features, flight alerts, and more!